Portada
METAR-TAF:

METAR-TAF

Aeroports :

Aurenja, França

latitud: 44-08N, longitud: 004-50E, altitud: 60 m

Observació

L'informe es va fer fa 22 minuts, a les 20:30 UTC
Vent 7 kt del Sud
Temperatura 25°C
Humitat 44%
Pressió 1016 hPa
Visibilitat 10 km o més
sense núvols per sota de 1500 mi sense presència de cumulonimbus.

METAR: LFMO 192030Z AUTO 18007KT CAVOK 25/12 Q1016 NOSIG

Hora: 22:52 (20:52 UTC)

Pronòstic

L'informe es va fer fa 52 minuts, a les 20:00 UTC
Pronòstic vàlid del 19 a les 21 UTC al 20 a les 21 UTC
Vent 8 kt del Sud/Sud-Est
Visibilitat 10 km o més
sense núvols per sota de 1500 mi sense presència de cumulonimbus.
Evolucionant progressivament
l' 20 a les 00 UTC al 20 a les 03 UTC
Vent 2 kt amb direcció variable
Evolucionant progressivament
l' 20 a les 12 UTC al 20 a les 14 UTC
Vent 12 kt del Sud/Sud-Oest

TAF: LFMO 192000Z 1921/2021 16008KT CAVOK BECMG 2000/2003 VRB02KT BECMG 2012/2014 20012KT

Observacions i pronòstics meteorològics de més de 4000 aeroports (METAR i TAF).

Les estacions disponibles són els punts grocs i vermells al mapa.

Posi el ratolí al punt desitjat per veure el nom de l'estació.

Feu clic per veure les observacions i els pronòstics meteorològics.

Per canviar el mapa: feu clic els botons verds amb una creu de color negre per apropar; al botó verd amb un guió per allunyar la imatge; o en les fletxes verdes per a mapes adjacents.


METAR-TAF: